Claymont, Delaware
Current Conditions -  °F | °C
As of 7:51 PM on Tuesday 27 Jan 2015 (Local Time) from KILG Reporting Station
Clear Clear  
Wind Chill: 19°   Ceiling: Unl
Heat Index: 30°   Visibility: 10mi
Dew Point:   Wind: 16mph
Humidity: 38%   Direction: 320°NW
Pressure: 29.82"   Gusts: 30mph
Location:  39.8°N, 75.46°W
Report Text: KILG 280051Z 32014G26KT 10SM CLR M01/M14 A2982 RMK AO2 PK WND 33026/0042 SLP100 T10111139
Loading
Personal Weather Stations






























Interactive Weather Map New forecast layout! Learn more

10-Day Weather Forecast

Advertisements
Track Severe Weather on mobile